ADDS METAR Data INFO
IDs: Format: Raw Decoded Include TAF

Data at: 0257 UTC 21 Jan 2018

KEKO 210156Z AUTO 31008KT 10SM OVC060 M01/M07 A3004 RMK AO2 SLP204 T10111072
KEKO 210056Z AUTO 31006KT 10SM OVC060 M01/M08 A3003 RMK AO2 SLP196 T10111078
KEKO 202356Z AUTO 32012KT 10SM OVC050 M01/M08 A3001 RMK AO2 SLP187 T10061083 10017 21017 53015
KEKO 202256Z AUTO 33015KT 10SM SCT050 01/M09 A2998 RMK AO2 SLP176 T00061089
KEKO 202156Z AUTO 31014KT 10SM FEW040 BKN050 02/M08 A2997 RMK AO2 SLP166 T00171078
KEKO 202056Z AUTO VRB05KT 10SM FEW037 BKN047 00/M08 A2996 RMK AO2 SLP166 T00001083 58009
KEKO 201956Z AUTO 01009KT 10SM BKN044 01/M08 A2996 RMK AO2 SLP164 T00111083
KEKO 201856Z AUTO 35007KT 10SM CLR 00/M08 A2998 RMK AO2 WSHFT 1826 SLP175 T00001078
KEKO 201846Z AUTO 35008KT 10SM CLR M01/M08 A2999 RMK AO2 WSHFT 1826 T10061078
KEKO 201756Z AUTO 19003KT 10SM CLR M02/M06 A2999 RMK AO2 SLP177 T10171061 11017 21061 53010
KEKO 201656Z AUTO 17005KT 10SM CLR M03/M06 A2998 RMK AO2 SLP180 T10331061
KEKO 201556Z AUTO 22004KT 10SM CLR M06/M08 A2996 RMK AO2 SLP175 T10561078
KEKO 201456Z AUTO 16004KT 10SM CLR M06/M08 A2995 RMK AO2 SLP173 T10611078 53007
KEKO 201356Z AUTO 09004KT 10SM CLR M06/M08 A2995 RMK AO2 SLP168 T10561078
KEKO 201256Z AUTO 07003KT 10SM CLR M04/M07 A2993 RMK AO2 SLP161 T10391067
KEKO 201156Z AUTO 18004KT 10SM CLR M04/M06 A2993 RMK AO2 SLP156 70008 T10391056 11017 21044 55004
KEKO 201056Z AUTO 25003KT 10SM CLR M04/M05 A2991 RMK AO2 SLP152 T10391050
KEKO 200956Z AUTO 00000KT 10SM CLR M03/M05 A2994 RMK AO2 SLP158 T10331050
KEKO 200856Z AUTO 22003KT 10SM FEW120 M03/M04 A2994 RMK AO2 SLP162 T10331044 55001
KEKO 200756Z AUTO 04003KT 10SM FEW120 M02/M04 A2994 RMK AO2 SLP158 T10221044 401001022
KEKO 200656Z AUTO 09003KT 10SM FEW039 BKN120 M02/M04 A2994 RMK AO2 SLP159 T10221039
KEKO 200556Z AUTO 06004KT 10SM FEW037 SCT120 M02/M03 A2994 RMK AO2 SLP158 T10171028 10000 21022 53004
KEKO 200456Z AUTO VRB03KT 10SM FEW047 FEW120 M02/M03 A2993 RMK AO2 SLP153 T10221033
KEKO 200356Z AUTO 00000KT 10SM SCT120 M01/M03 A2992 RMK AO2 SLP148 T10111028
KEKO 200256Z AUTO 00000KT 10SM BKN120 M01/M03 A2993 RMK AO2 SLP149 T10111028 58003
KEKO 200156Z AUTO 00000KT 10SM BKN110 M01/M02 A2994 RMK AO2 SLP148 T10061022
KEKO 200056Z AUTO 00000KT 10SM BKN100 M01/M03 A2993 RMK AO2 SLP143 T10061028
KEKO 192356Z AUTO 16005KT 10SM FEW110 00/M02 A2994 RMK AO2 SLP144 60005 T00001022 10006 21006 53000
KEKO 192256Z AUTO 22007KT 10SM BKN110 01/M02 A2993 RMK AO2 SLP137 T00061022
KEKO 192203Z AUTO 18006KT 10SM FEW014 BKN031 OVC085 00/M02 A2993 RMK AO2 T00001022
KEKO 192156Z AUTO 20006KT 10SM BKN014 BKN031 OVC085 01/M02 A2994 RMK AO2 SNE2059 SLP138 P0000 T00061017
KEKO 192120Z AUTO 20007KT 10SM BKN012 OVC065 00/M02 A2993 RMK AO2 SNE2059 P0000 T00001017
KEKO 192056Z AUTO 19007KT 7SM -SN FEW007 BKN032 OVC065 00/M01 A2994 RMK AO2 SLP136 P0000 60005 T00001011 58001
KEKO 192049Z AUTO 20006KT 4SM -SN BR SCT009 BKN029 OVC037 00/M01 A2993 RMK AO2 P0000 T00001011
KEKO 192036Z AUTO 21006KT 3SM -SN BR BKN027 OVC035 M01/M01 A2994 RMK AO2 P0000 T10061011
KEKO 192009Z AUTO 21009KT 2 1/2SM -SN BR BKN025 OVC035 M01/M02 A2996 RMK AO2 P0000 T10061022
KEKO 191956Z AUTO 23007KT 1 1/2SM -SN BR BKN017 OVC026 M01/M01 A2995 RMK AO2 SLP142 P0002 T10061011
KEKO 191920Z AUTO 23011KT 1 1/4SM -SN BR FEW009 OVC015 00/M02 A2996 RMK AO2 P0001 T00001022
KEKO 191912Z AUTO 23006KT 1 1/4SM -SN BR BKN015 00/M02 A2996 RMK AO2 P0001 T00001017
KEKO 191856Z AUTO 23005KT 3/4SM -SN BR FEW005 OVC011 00/M02 A2996 RMK AO2 SLP145 P0003 T00001017
KEKO 191843Z AUTO 23003KT 1/2SM SN FG FEW005 OVC013 00/M01 A2995 RMK AO2 P0002 T00001011
KEKO 191804Z AUTO 25010KT 1 3/4SM -SN BR OVC014 01/M01 A2995 RMK AO2 PRESRR P0000 T00061011
KEKO 191756Z AUTO 24010KT 5SM -SN BR BKN014 OVC026 01/M01 A2994 RMK AO2 SNB10E38B55 SLP135 P0000 60003 T00061011 10056 20006 51014
KEKO 191752Z AUTO 24009G18KT 10SM BKN014 OVC036 01/M01 A2994 RMK AO2 SNB10E38 P0000
KEKO 191728Z AUTO 23010KT 7SM -SN FEW008 SCT017 OVC035 01/00 A2991 RMK AO2 SNB10 P0000 T00110000
KEKO 191711Z AUTO 22010KT 10SM -SN FEW013 BKN017 OVC050 01/00 A2992 RMK AO2 SNB10 P0000 T00110000
KEKO 191656Z AUTO 22008KT 10SM FEW017 BKN041 OVC055 02/00 A2991 RMK AO2 SNE39 SLP121 P0001 T00170000
KEKO 191646Z AUTO 24010KT 10SM FEW020 BKN036 OVC055 02/00 A2989 RMK AO2 SNE39 P0001 T00170000
KEKO 191620Z AUTO 21008KT 3SM -SN BR OVC024 01/00 A2989 RMK AO2 P0001 T00110000
KEKO 191556Z AUTO 22010KT 9SM -SN OVC046 01/01 A2989 RMK AO2 UPE12B51E56SNB35E51B56 PRESRR SLP117 P0000 T00110006